sensor_id;sensor_type;location;lat;lon;timestamp;P1;durP1;ratioP1;P2;durP2;ratioP2
28958;SDS011;16066;0.000;0.000;2023-04-12T00:01:12;20.30;;;11.17;;
28958;SDS011;16066;0.000;0.000;2023-04-12T00:03:38;18.20;;;10.60;;
28958;SDS011;16066;0.000;0.000;2023-04-12T00:06:03;19.37;;;11.10;;
28958;SDS011;16066;0.000;0.000;2023-04-12T00:08:31;18.80;;;10.37;;
28958;SDS011;16066;0.000;0.000;2023-04-12T00:11:00;18.57;;;11.50;;
28958;SDS011;16066;0.000;0.000;2023-04-12T00:13:27;15.27;;;9.90;;
28958;SDS011;16066;0.000;0.000;2023-04-12T00:15:53;16.17;;;10.57;;
28958;SDS011;16066;0.000;0.000;2023-04-12T00:18:19;15.63;;;9.20;;
28958;SDS011;16066;0.000;0.000;2023-04-12T00:20:48;16.97;;;9.17;;
28958;SDS011;16066;0.000;0.000;2023-04-12T00:23:17;17.60;;;10.20;;
28958;SDS011;16066;0.000;0.000;2023-04-12T00:25:43;16.20;;;9.63;;
28958;SDS011;16066;0.000;0.000;2023-04-12T00:28:09;16.40;;;10.07;;
28958;SDS011;16066;0.000;0.000;2023-04-12T00:30:36;18.63;;;10.03;;
28958;SDS011;16066;0.000;0.000;2023-04-12T00:33:01;12.83;;;8.40;;
28958;SDS011;16066;0.000;0.000;2023-04-12T00:35:27;13.43;;;8.80;;
28958;SDS011;16066;0.000;0.000;2023-04-12T00:37:52;14.33;;;8.80;;
28958;SDS011;16066;0.000;0.000;2023-04-12T00:40:18;12.50;;;8.30;;
28958;SDS011;16066;0.000;0.000;2023-04-12T00:42:44;14.33;;;8.53;;
28958;SDS011;16066;0.000;0.000;2023-04-12T00:45:10;14.00;;;8.80;;
28958;SDS011;16066;0.000;0.000;2023-04-12T00:47:36;12.23;;;8.30;;
28958;SDS011;16066;0.000;0.000;2023-04-12T00:50:03;12.07;;;8.33;;
28958;SDS011;16066;0.000;0.000;2023-04-12T00:52:33;13.20;;;8.10;;
28958;SDS011;16066;0.000;0.000;2023-04-12T00:55:03;15.07;;;8.67;;
28958;SDS011;16066;0.000;0.000;2023-04-12T00:57:31;10.50;;;7.37;;
28958;SDS011;16066;0.000;0.000;2023-04-12T01:00:00;13.20;;;8.90;;
28958;SDS011;16066;0.000;0.000;2023-04-12T01:02:28;13.30;;;8.20;;
28958;SDS011;16066;0.000;0.000;2023-04-12T01:04:54;15.23;;;8.33;;
28958;SDS011;16066;0.000;0.000;2023-04-12T01:13:38;12.90;;;7.97;;
28958;SDS011;16066;0.000;0.000;2023-04-12T01:15:51;15.10;;;8.00;;
28958;SDS011;16066;0.000;0.000;2023-04-12T01:18:21;13.50;;;7.50;;
28958;SDS011;16066;0.000;0.000;2023-04-12T01:21:00;10.63;;;7.33;;
28958;SDS011;16066;0.000;0.000;2023-04-12T01:23:57;11.70;;;7.90;;
28958;SDS011;16066;0.000;0.000;2023-04-12T01:26:50;10.50;;;7.57;;
28958;SDS011;16066;0.000;0.000;2023-04-12T01:29:21;13.13;;;7.97;;
28958;SDS011;16066;0.000;0.000;2023-04-12T01:31:52;13.20;;;7.33;;
28958;SDS011;16066;0.000;0.000;2023-04-12T01:34:22;10.73;;;6.93;;
28958;SDS011;16066;0.000;0.000;2023-04-12T01:36:50;13.20;;;7.53;;
28958;SDS011;16066;0.000;0.000;2023-04-12T01:39:16;9.93;;;7.40;;
28958;SDS011;16066;0.000;0.000;2023-04-12T01:41:42;10.77;;;7.60;;
28958;SDS011;16066;0.000;0.000;2023-04-12T01:44:13;13.03;;;8.00;;
28958;SDS011;16066;0.000;0.000;2023-04-12T01:46:39;11.37;;;8.23;;
28958;SDS011;16066;0.000;0.000;2023-04-12T01:49:06;13.50;;;7.40;;
28958;SDS011;16066;0.000;0.000;2023-04-12T01:51:42;10.97;;;7.50;;
28958;SDS011;16066;0.000;0.000;2023-04-12T01:54:33;10.40;;;7.67;;
28958;SDS011;16066;0.000;0.000;2023-04-12T01:57:03;12.53;;;7.33;;
28958;SDS011;16066;0.000;0.000;2023-04-12T01:59:33;11.17;;;8.27;;
28958;SDS011;16066;0.000;0.000;2023-04-12T02:02:03;11.03;;;7.03;;
28958;SDS011;16066;0.000;0.000;2023-04-12T02:04:29;9.90;;;6.73;;
28958;SDS011;16066;0.000;0.000;2023-04-12T02:06:56;9.00;;;6.40;;
28958;SDS011;16066;0.000;0.000;2023-04-12T02:09:21;11.00;;;7.93;;
28958;SDS011;16066;0.000;0.000;2023-04-12T02:11:47;9.63;;;6.67;;
28958;SDS011;16066;0.000;0.000;2023-04-12T02:14:14;10.23;;;7.23;;
28958;SDS011;16066;0.000;0.000;2023-04-12T02:16:40;10.87;;;7.67;;
28958;SDS011;16066;0.000;0.000;2023-04-12T02:19:06;10.77;;;7.37;;
28958;SDS011;16066;0.000;0.000;2023-04-12T02:21:42;9.30;;;6.70;;
28958;SDS011;16066;0.000;0.000;2023-04-12T02:24:08;13.03;;;7.37;;
28958;SDS011;16066;0.000;0.000;2023-04-12T02:26:35;9.90;;;6.93;;
28958;SDS011;16066;0.000;0.000;2023-04-12T02:29:01;9.87;;;6.23;;
28958;SDS011;16066;0.000;0.000;2023-04-12T02:31:27;9.07;;;6.80;;
28958;SDS011;16066;0.000;0.000;2023-04-12T02:33:54;12.07;;;8.20;;
28958;SDS011;16066;0.000;0.000;2023-04-12T02:36:20;11.90;;;6.70;;
28958;SDS011;16066;0.000;0.000;2023-04-12T02:38:46;9.57;;;7.13;;
28958;SDS011;16066;0.000;0.000;2023-04-12T02:41:18;12.00;;;7.87;;
28958;SDS011;16066;0.000;0.000;2023-04-12T02:43:44;9.67;;;6.93;;
28958;SDS011;16066;0.000;0.000;2023-04-12T02:46:13;11.80;;;7.53;;
28958;SDS011;16066;0.000;0.000;2023-04-12T02:48:39;10.47;;;6.87;;
28958;SDS011;16066;0.000;0.000;2023-04-12T02:51:05;9.97;;;6.50;;
28958;SDS011;16066;0.000;0.000;2023-04-12T02:53:31;10.47;;;5.97;;
28958;SDS011;16066;0.000;0.000;2023-04-12T02:55:56;9.80;;;7.10;;
28958;SDS011;16066;0.000;0.000;2023-04-12T02:58:25;8.07;;;6.43;;
28958;SDS011;16066;0.000;0.000;2023-04-12T03:00:51;9.70;;;7.03;;
28958;SDS011;16066;0.000;0.000;2023-04-12T03:03:17;10.97;;;6.80;;
28958;SDS011;16066;0.000;0.000;2023-04-12T03:05:42;9.07;;;6.57;;
28958;SDS011;16066;0.000;0.000;2023-04-12T03:08:11;12.80;;;7.07;;
28958;SDS011;16066;0.000;0.000;2023-04-12T03:10:37;10.13;;;6.70;;
28958;SDS011;16066;0.000;0.000;2023-04-12T03:13:03;7.97;;;6.17;;
28958;SDS011;16066;0.000;0.000;2023-04-12T03:15:29;10.50;;;7.07;;
28958;SDS011;16066;0.000;0.000;2023-04-12T03:17:55;9.33;;;6.00;;
28958;SDS011;16066;0.000;0.000;2023-04-12T03:20:21;9.63;;;6.33;;
28958;SDS011;16066;0.000;0.000;2023-04-12T03:22:48;9.27;;;6.10;;
28958;SDS011;16066;0.000;0.000;2023-04-12T03:25:14;10.43;;;6.33;;
28958;SDS011;16066;0.000;0.000;2023-04-12T03:27:41;10.30;;;7.30;;
28958;SDS011;16066;0.000;0.000;2023-04-12T03:30:08;9.33;;;6.83;;
28958;SDS011;16066;0.000;0.000;2023-04-12T03:32:40;9.13;;;6.13;;
28958;SDS011;16066;0.000;0.000;2023-04-12T03:35:06;10.37;;;6.80;;
28958;SDS011;16066;0.000;0.000;2023-04-12T03:37:33;9.63;;;6.40;;
28958;SDS011;16066;0.000;0.000;2023-04-12T03:39:59;8.77;;;6.37;;
28958;SDS011;16066;0.000;0.000;2023-04-12T03:42:25;10.53;;;6.77;;
28958;SDS011;16066;0.000;0.000;2023-04-12T03:44:51;9.80;;;6.40;;
28958;SDS011;16066;0.000;0.000;2023-04-12T03:47:17;8.03;;;6.10;;
28958;SDS011;16066;0.000;0.000;2023-04-12T03:49:43;9.87;;;6.37;;
28958;SDS011;16066;0.000;0.000;2023-04-12T03:52:09;8.80;;;5.73;;
28958;SDS011;16066;0.000;0.000;2023-04-12T03:54:35;6.80;;;5.50;;
28958;SDS011;16066;0.000;0.000;2023-04-12T03:57:00;10.57;;;7.47;;
28958;SDS011;16066;0.000;0.000;2023-04-12T03:59:26;9.07;;;6.07;;
28958;SDS011;16066;0.000;0.000;2023-04-12T04:01:53;9.30;;;6.33;;
28958;SDS011;16066;0.000;0.000;2023-04-12T04:04:19;7.43;;;6.00;;
28958;SDS011;16066;0.000;0.000;2023-04-12T04:06:45;9.33;;;6.60;;
28958;SDS011;16066;0.000;0.000;2023-04-12T04:09:11;9.03;;;6.70;;
28958;SDS011;16066;0.000;0.000;2023-04-12T04:11:36;9.10;;;6.50;;
28958;SDS011;16066;0.000;0.000;2023-04-12T04:14:02;9.07;;;6.60;;
28958;SDS011;16066;0.000;0.000;2023-04-12T04:16:27;8.97;;;6.23;;
28958;SDS011;16066;0.000;0.000;2023-04-12T04:18:54;6.87;;;4.93;;
28958;SDS011;16066;0.000;0.000;2023-04-12T04:21:20;6.93;;;5.43;;
28958;SDS011;16066;0.000;0.000;2023-04-12T04:23:46;9.03;;;5.73;;
28958;SDS011;16066;0.000;0.000;2023-04-12T04:26:12;9.07;;;6.00;;
28958;SDS011;16066;0.000;0.000;2023-04-12T04:28:40;8.27;;;5.77;;
28958;SDS011;16066;0.000;0.000;2023-04-12T04:31:08;9.57;;;6.70;;
28958;SDS011;16066;0.000;0.000;2023-04-12T04:33:35;9.70;;;6.63;;
28958;SDS011;16066;0.000;0.000;2023-04-12T04:36:01;7.80;;;5.90;;
28958;SDS011;16066;0.000;0.000;2023-04-12T04:38:30;9.30;;;6.60;;
28958;SDS011;16066;0.000;0.000;2023-04-12T04:40:58;9.30;;;6.77;;
28958;SDS011;16066;0.000;0.000;2023-04-12T04:43:26;9.20;;;6.20;;
28958;SDS011;16066;0.000;0.000;2023-04-12T04:45:54;7.37;;;5.77;;
28958;SDS011;16066;0.000;0.000;2023-04-12T04:48:20;8.50;;;6.37;;
28958;SDS011;16066;0.000;0.000;2023-04-12T04:50:46;9.47;;;5.80;;
28958;SDS011;16066;0.000;0.000;2023-04-12T04:53:12;8.33;;;6.23;;
28958;SDS011;16066;0.000;0.000;2023-04-12T04:55:37;9.03;;;6.50;;
28958;SDS011;16066;0.000;0.000;2023-04-12T04:58:04;8.70;;;6.67;;
28958;SDS011;16066;0.000;0.000;2023-04-12T05:00:30;11.63;;;7.70;;
28958;SDS011;16066;0.000;0.000;2023-04-12T05:02:56;6.87;;;5.63;;
28958;SDS011;16066;0.000;0.000;2023-04-12T05:05:21;8.70;;;6.43;;
28958;SDS011;16066;0.000;0.000;2023-04-12T05:07:47;8.23;;;6.23;;
28958;SDS011;16066;0.000;0.000;2023-04-12T05:10:13;7.67;;;6.30;;
28958;SDS011;16066;0.000;0.000;2023-04-12T05:12:38;10.00;;;6.73;;
28958;SDS011;16066;0.000;0.000;2023-04-12T05:15:04;9.50;;;6.70;;
28958;SDS011;16066;0.000;0.000;2023-04-12T05:17:30;9.87;;;6.67;;
28958;SDS011;16066;0.000;0.000;2023-04-12T05:19:58;7.17;;;5.73;;
28958;SDS011;16066;0.000;0.000;2023-04-12T05:22:24;8.27;;;6.33;;
28958;SDS011;16066;0.000;0.000;2023-04-12T05:24:49;7.93;;;6.20;;
28958;SDS011;16066;0.000;0.000;2023-04-12T05:27:15;8.90;;;6.27;;
28958;SDS011;16066;0.000;0.000;2023-04-12T05:29:42;7.93;;;6.03;;
28958;SDS011;16066;0.000;0.000;2023-04-12T05:32:07;8.27;;;5.20;;
28958;SDS011;16066;0.000;0.000;2023-04-12T05:34:33;7.40;;;5.17;;
28958;SDS011;16066;0.000;0.000;2023-04-12T05:36:58;7.83;;;6.00;;
28958;SDS011;16066;0.000;0.000;2023-04-12T05:39:25;8.47;;;5.90;;
28958;SDS011;16066;0.000;0.000;2023-04-12T05:41:51;7.70;;;5.60;;
28958;SDS011;16066;0.000;0.000;2023-04-12T05:44:17;6.67;;;5.10;;
28958;SDS011;16066;0.000;0.000;2023-04-12T05:46:42;5.90;;;4.60;;
28958;SDS011;16066;0.000;0.000;2023-04-12T05:49:08;7.43;;;5.10;;
28958;SDS011;16066;0.000;0.000;2023-04-12T05:51:33;5.60;;;4.80;;
28958;SDS011;16066;0.000;0.000;2023-04-12T05:53:59;7.20;;;5.30;;
28958;SDS011;16066;0.000;0.000;2023-04-12T05:56:25;7.10;;;5.23;;
28958;SDS011;16066;0.000;0.000;2023-04-12T05:58:51;6.13;;;4.87;;
28958;SDS011;16066;0.000;0.000;2023-04-12T06:01:16;6.40;;;4.90;;
28958;SDS011;16066;0.000;0.000;2023-04-12T06:03:43;6.40;;;4.83;;
28958;SDS011;16066;0.000;0.000;2023-04-12T06:06:10;6.17;;;5.30;;
28958;SDS011;16066;0.000;0.000;2023-04-12T06:08:35;8.57;;;5.07;;
28958;SDS011;16066;0.000;0.000;2023-04-12T06:11:02;7.87;;;5.00;;
28958;SDS011;16066;0.000;0.000;2023-04-12T06:13:28;7.10;;;5.07;;
28958;SDS011;16066;0.000;0.000;2023-04-12T06:15:53;7.03;;;5.20;;
28958;SDS011;16066;0.000;0.000;2023-04-12T06:18:19;5.50;;;4.70;;
28958;SDS011;16066;0.000;0.000;2023-04-12T06:20:44;7.30;;;5.50;;
28958;SDS011;16066;0.000;0.000;2023-04-12T06:23:10;5.97;;;4.53;;
28958;SDS011;16066;0.000;0.000;2023-04-12T06:25:36;7.27;;;5.57;;
28958;SDS011;16066;0.000;0.000;2023-04-12T06:28:01;6.03;;;4.27;;
28958;SDS011;16066;0.000;0.000;2023-04-12T06:30:27;7.70;;;4.50;;
28958;SDS011;16066;0.000;0.000;2023-04-12T06:32:52;6.00;;;4.07;;
28958;SDS011;16066;0.000;0.000;2023-04-12T06:35:18;6.13;;;3.43;;
28958;SDS011;16066;0.000;0.000;2023-04-12T06:37:45;6.70;;;4.17;;
28958;SDS011;16066;0.000;0.000;2023-04-12T06:40:11;6.07;;;3.07;;
28958;SDS011;16066;0.000;0.000;2023-04-12T06:42:36;5.60;;;3.23;;
28958;SDS011;16066;0.000;0.000;2023-04-12T06:45:02;3.90;;;2.80;;
28958;SDS011;16066;0.000;0.000;2023-04-12T06:47:28;5.70;;;3.00;;
28958;SDS011;16066;0.000;0.000;2023-04-12T06:49:55;5.60;;;3.40;;
28958;SDS011;16066;0.000;0.000;2023-04-12T06:52:25;4.97;;;3.20;;
28958;SDS011;16066;0.000;0.000;2023-04-12T06:54:51;5.67;;;4.27;;
28958;SDS011;16066;0.000;0.000;2023-04-12T06:57:17;5.50;;;3.43;;
28958;SDS011;16066;0.000;0.000;2023-04-12T06:59:43;8.10;;;3.80;;
28958;SDS011;16066;0.000;0.000;2023-04-12T07:02:08;7.90;;;3.20;;
28958;SDS011;16066;0.000;0.000;2023-04-12T07:04:34;4.27;;;3.40;;
28958;SDS011;16066;0.000;0.000;2023-04-12T07:07:00;5.90;;;3.37;;
28958;SDS011;16066;0.000;0.000;2023-04-12T07:09:25;4.73;;;3.03;;
28958;SDS011;16066;0.000;0.000;2023-04-12T07:11:51;6.13;;;3.27;;
28958;SDS011;16066;0.000;0.000;2023-04-12T07:14:17;4.47;;;3.30;;
28958;SDS011;16066;0.000;0.000;2023-04-12T07:16:42;3.77;;;3.20;;
28958;SDS011;16066;0.000;0.000;2023-04-12T07:19:08;3.20;;;2.90;;
28958;SDS011;16066;0.000;0.000;2023-04-12T07:21:34;4.23;;;3.20;;
28958;SDS011;16066;0.000;0.000;2023-04-12T07:23:59;4.33;;;3.20;;
28958;SDS011;16066;0.000;0.000;2023-04-12T07:26:25;3.63;;;3.10;;
28958;SDS011;16066;0.000;0.000;2023-04-12T07:28:51;4.27;;;2.90;;
28958;SDS011;16066;0.000;0.000;2023-04-12T07:31:16;7.03;;;3.13;;
28958;SDS011;16066;0.000;0.000;2023-04-12T07:33:42;4.80;;;2.90;;
28958;SDS011;16066;0.000;0.000;2023-04-12T07:36:08;3.43;;;2.60;;
28958;SDS011;16066;0.000;0.000;2023-04-12T07:38:33;5.13;;;3.10;;
28958;SDS011;16066;0.000;0.000;2023-04-12T07:40:59;4.60;;;3.47;;
28958;SDS011;16066;0.000;0.000;2023-04-12T07:43:24;4.83;;;3.30;;
28958;SDS011;16066;0.000;0.000;2023-04-12T07:45:50;3.87;;;2.93;;
28958;SDS011;16066;0.000;0.000;2023-04-12T07:48:16;4.60;;;3.67;;
28958;SDS011;16066;0.000;0.000;2023-04-12T07:50:42;4.30;;;3.80;;
28958;SDS011;16066;0.000;0.000;2023-04-12T07:53:17;3.93;;;3.50;;
28958;SDS011;16066;0.000;0.000;2023-04-12T07:55:44;4.57;;;3.70;;
28958;SDS011;16066;0.000;0.000;2023-04-12T07:58:10;6.83;;;4.23;;
28958;SDS011;16066;0.000;0.000;2023-04-12T08:00:36;5.20;;;4.40;;
28958;SDS011;16066;0.000;0.000;2023-04-12T08:03:01;7.17;;;4.30;;
28958;SDS011;16066;0.000;0.000;2023-04-12T08:05:27;5.00;;;4.33;;
28958;SDS011;16066;0.000;0.000;2023-04-12T08:07:52;5.70;;;3.60;;
28958;SDS011;16066;0.000;0.000;2023-04-12T08:10:18;3.77;;;3.37;;
28958;SDS011;16066;0.000;0.000;2023-04-12T08:12:44;5.60;;;4.17;;
28958;SDS011;16066;0.000;0.000;2023-04-12T08:15:09;4.93;;;3.83;;
28958;SDS011;16066;0.000;0.000;2023-04-12T08:17:35;4.30;;;3.43;;
28958;SDS011;16066;0.000;0.000;2023-04-12T08:20:01;4.90;;;3.47;;
28958;SDS011;16066;0.000;0.000;2023-04-12T08:22:28;5.40;;;3.47;;
28958;SDS011;16066;0.000;0.000;2023-04-12T08:24:54;3.97;;;2.80;;
28958;SDS011;16066;0.000;0.000;2023-04-12T08:27:19;4.00;;;3.20;;
28958;SDS011;16066;0.000;0.000;2023-04-12T08:29:45;4.90;;;3.23;;
28958;SDS011;16066;0.000;0.000;2023-04-12T08:32:10;3.23;;;2.80;;
28958;SDS011;16066;0.000;0.000;2023-04-12T08:34:36;5.33;;;2.97;;
28958;SDS011;16066;0.000;0.000;2023-04-12T08:37:02;2.67;;;2.43;;
28958;SDS011;16066;0.000;0.000;2023-04-12T08:39:29;5.03;;;3.17;;
28958;SDS011;16066;0.000;0.000;2023-04-12T08:41:55;4.90;;;2.90;;
28958;SDS011;16066;0.000;0.000;2023-04-12T08:44:31;5.20;;;2.63;;
28958;SDS011;16066;0.000;0.000;2023-04-12T08:47:01;4.40;;;2.60;;
28958;SDS011;16066;0.000;0.000;2023-04-12T08:49:27;3.50;;;2.40;;
28958;SDS011;16066;0.000;0.000;2023-04-12T08:51:54;3.97;;;2.93;;
28958;SDS011;16066;0.000;0.000;2023-04-12T08:54:23;5.43;;;3.00;;
28958;SDS011;16066;0.000;0.000;2023-04-12T08:56:49;11.57;;;3.00;;
28958;SDS011;16066;0.000;0.000;2023-04-12T08:59:17;11.23;;;2.80;;
28958;SDS011;16066;0.000;0.000;2023-04-12T09:01:43;3.77;;;2.47;;
28958;SDS011;16066;0.000;0.000;2023-04-12T09:04:09;6.33;;;3.07;;
28958;SDS011;16066;0.000;0.000;2023-04-12T09:06:34;2.63;;;2.20;;
28958;SDS011;16066;0.000;0.000;2023-04-12T09:09:00;8.60;;;3.07;;
28958;SDS011;16066;0.000;0.000;2023-04-12T09:11:30;2.53;;;2.07;;
28958;SDS011;16066;0.000;0.000;2023-04-12T09:13:56;11.13;;;2.30;;
28958;SDS011;16066;0.000;0.000;2023-04-12T09:16:40;3.77;;;2.50;;
28958;SDS011;16066;0.000;0.000;2023-04-12T09:19:06;4.10;;;2.70;;
28958;SDS011;16066;0.000;0.000;2023-04-12T09:21:33;3.83;;;2.50;;
28958;SDS011;16066;0.000;0.000;2023-04-12T09:24:02;6.00;;;2.40;;
28958;SDS011;16066;0.000;0.000;2023-04-12T09:26:28;3.27;;;2.40;;
28958;SDS011;16066;0.000;0.000;2023-04-12T09:28:55;2.40;;;2.20;;
28958;SDS011;16066;0.000;0.000;2023-04-12T09:31:21;2.83;;;2.40;;
28958;SDS011;16066;0.000;0.000;2023-04-12T09:33:46;4.20;;;2.10;;
28958;SDS011;16066;0.000;0.000;2023-04-12T09:36:12;5.70;;;2.77;;
28958;SDS011;16066;0.000;0.000;2023-04-12T09:38:38;6.70;;;2.43;;
28958;SDS011;16066;0.000;0.000;2023-04-12T09:41:15;8.80;;;2.40;;
28958;SDS011;16066;0.000;0.000;2023-04-12T09:43:46;5.30;;;1.90;;
28958;SDS011;16066;0.000;0.000;2023-04-12T09:46:12;8.70;;;2.17;;
28958;SDS011;16066;0.000;0.000;2023-04-12T09:48:38;4.03;;;1.90;;
28958;SDS011;16066;0.000;0.000;2023-04-12T09:51:08;3.53;;;2.20;;
28958;SDS011;16066;0.000;0.000;2023-04-12T09:53:34;2.90;;;2.20;;
28958;SDS011;16066;0.000;0.000;2023-04-12T09:56:03;4.80;;;2.37;;
28958;SDS011;16066;0.000;0.000;2023-04-12T09:58:30;2.60;;;2.37;;
28958;SDS011;16066;0.000;0.000;2023-04-12T10:00:58;6.70;;;2.13;;
28958;SDS011;16066;0.000;0.000;2023-04-12T10:03:26;3.30;;;2.07;;
28958;SDS011;16066;0.000;0.000;2023-04-12T10:05:53;5.67;;;2.13;;
28958;SDS011;16066;0.000;0.000;2023-04-12T10:08:19;3.03;;;2.30;;
28958;SDS011;16066;0.000;0.000;2023-04-12T10:10:46;15.70;;;3.10;;
28958;SDS011;16066;0.000;0.000;2023-04-12T10:13:12;12.63;;;2.70;;
28958;SDS011;16066;0.000;0.000;2023-04-12T10:15:38;5.83;;;2.27;;
28958;SDS011;16066;0.000;0.000;2023-04-12T10:18:05;3.50;;;2.47;;
28958;SDS011;16066;0.000;0.000;2023-04-12T10:20:31;6.73;;;2.33;;
28958;SDS011;16066;0.000;0.000;2023-04-12T10:22:56;3.03;;;2.13;;
28958;SDS011;16066;0.000;0.000;2023-04-12T10:25:26;4.47;;;2.20;;
28958;SDS011;16066;0.000;0.000;2023-04-12T10:27:54;6.23;;;2.00;;
28958;SDS011;16066;0.000;0.000;2023-04-12T10:32:47;2.67;;;2.07;;
28958;SDS011;16066;0.000;0.000;2023-04-12T10:35:29;3.47;;;2.27;;
28958;SDS011;16066;0.000;0.000;2023-04-12T10:40:24;3.73;;;2.40;;
28958;SDS011;16066;0.000;0.000;2023-04-12T10:45:47;3.47;;;2.10;;
28958;SDS011;16066;0.000;0.000;2023-04-12T10:48:29;3.27;;;2.40;;
28958;SDS011;16066;0.000;0.000;2023-04-12T10:51:21;3.83;;;1.83;;
28958;SDS011;16066;0.000;0.000;2023-04-12T10:56:40;2.33;;;1.73;;
28958;SDS011;16066;0.000;0.000;2023-04-12T10:59:07;8.70;;;2.40;;
28958;SDS011;16066;0.000;0.000;2023-04-12T11:01:33;2.93;;;2.30;;
28958;SDS011;16066;0.000;0.000;2023-04-12T11:04:07;4.03;;;3.07;;
28958;SDS011;16066;0.000;0.000;2023-04-12T11:19:33;3.90;;;2.20;;
28958;SDS011;16066;0.000;0.000;2023-04-12T11:22:03;6.70;;;2.47;;
28958;SDS011;16066;0.000;0.000;2023-04-12T11:24:30;2.50;;;2.10;;
28958;SDS011;16066;0.000;0.000;2023-04-12T11:26:56;2.93;;;2.00;;
28958;SDS011;16066;0.000;0.000;2023-04-12T11:29:23;2.93;;;2.20;;
28958;SDS011;16066;0.000;0.000;2023-04-12T11:31:49;3.13;;;2.43;;
28958;SDS011;16066;0.000;0.000;2023-04-12T11:34:18;3.20;;;2.60;;
28958;SDS011;16066;0.000;0.000;2023-04-12T11:36:44;5.20;;;2.90;;
28958;SDS011;16066;0.000;0.000;2023-04-12T11:39:11;4.60;;;3.03;;
28958;SDS011;16066;0.000;0.000;2023-04-12T11:41:42;3.50;;;2.80;;
28958;SDS011;16066;0.000;0.000;2023-04-12T11:44:08;3.70;;;2.80;;
28958;SDS011;16066;0.000;0.000;2023-04-12T11:46:34;3.10;;;2.60;;
28958;SDS011;16066;0.000;0.000;2023-04-12T11:48:59;2.60;;;2.30;;
28958;SDS011;16066;0.000;0.000;2023-04-12T11:51:25;3.60;;;2.63;;
28958;SDS011;16066;0.000;0.000;2023-04-12T11:53:55;2.70;;;2.23;;
28958;SDS011;16066;0.000;0.000;2023-04-12T11:56:23;2.50;;;2.00;;
28958;SDS011;16066;0.000;0.000;2023-04-12T11:58:50;2.40;;;2.00;;
28958;SDS011;16066;0.000;0.000;2023-04-12T12:01:16;4.27;;;2.90;;
28958;SDS011;16066;0.000;0.000;2023-04-12T12:03:44;3.37;;;2.57;;
28958;SDS011;16066;0.000;0.000;2023-04-12T12:06:10;2.63;;;2.43;;
28958;SDS011;16066;0.000;0.000;2023-04-12T12:08:37;2.83;;;2.40;;
28958;SDS011;16066;0.000;0.000;2023-04-12T12:11:03;2.60;;;2.20;;
28958;SDS011;16066;0.000;0.000;2023-04-12T12:16:14;3.23;;;2.37;;
28958;SDS011;16066;0.000;0.000;2023-04-12T12:18:41;2.43;;;2.17;;
28958;SDS011;16066;0.000;0.000;2023-04-12T12:21:08;3.90;;;2.53;;
28958;SDS011;16066;0.000;0.000;2023-04-12T12:23:34;3.00;;;2.37;;
28958;SDS011;16066;0.000;0.000;2023-04-12T12:26:01;4.03;;;2.17;;
28958;SDS011;16066;0.000;0.000;2023-04-12T12:28:27;3.13;;;2.37;;
28958;SDS011;16066;0.000;0.000;2023-04-12T12:30:56;4.47;;;2.57;;
28958;SDS011;16066;0.000;0.000;2023-04-12T12:33:22;2.30;;;2.10;;
28958;SDS011;16066;0.000;0.000;2023-04-12T12:35:55;4.37;;;3.00;;
28958;SDS011;16066;0.000;0.000;2023-04-12T12:38:21;2.40;;;2.10;;
28958;SDS011;16066;0.000;0.000;2023-04-12T12:40:47;3.50;;;2.37;;
28958;SDS011;16066;0.000;0.000;2023-04-12T12:43:18;2.90;;;2.43;;
28958;SDS011;16066;0.000;0.000;2023-04-12T12:45:45;3.50;;;2.30;;
28958;SDS011;16066;0.000;0.000;2023-04-12T12:48:11;2.70;;;2.17;;
28958;SDS011;16066;0.000;0.000;2023-04-12T12:50:37;3.90;;;3.03;;
28958;SDS011;16066;0.000;0.000;2023-04-12T12:53:03;5.03;;;2.57;;
28958;SDS011;16066;0.000;0.000;2023-04-12T12:55:30;3.80;;;3.00;;
28958;SDS011;16066;0.000;0.000;2023-04-12T12:57:56;5.73;;;3.07;;
28958;SDS011;16066;0.000;0.000;2023-04-12T13:00:24;4.60;;;3.20;;
28958;SDS011;16066;0.000;0.000;2023-04-12T13:02:51;2.93;;;2.63;;
28958;SDS011;16066;0.000;0.000;2023-04-12T13:05:17;3.90;;;3.23;;
28958;SDS011;16066;0.000;0.000;2023-04-12T13:07:44;3.17;;;2.63;;
28958;SDS011;16066;0.000;0.000;2023-04-12T13:10:10;3.43;;;2.90;;
28958;SDS011;16066;0.000;0.000;2023-04-12T13:12:36;3.97;;;2.90;;
28958;SDS011;16066;0.000;0.000;2023-04-12T13:15:02;4.77;;;3.17;;
28958;SDS011;16066;0.000;0.000;2023-04-12T13:17:28;5.27;;;2.80;;
28958;SDS011;16066;0.000;0.000;2023-04-12T13:19:55;4.00;;;2.80;;
28958;SDS011;16066;0.000;0.000;2023-04-12T13:22:21;4.80;;;3.07;;
28958;SDS011;16066;0.000;0.000;2023-04-12T13:24:47;6.57;;;2.67;;
28958;SDS011;16066;0.000;0.000;2023-04-12T13:27:13;4.03;;;2.83;;
28958;SDS011;16066;0.000;0.000;2023-04-12T13:29:39;6.83;;;3.43;;
28958;SDS011;16066;0.000;0.000;2023-04-12T13:32:06;5.40;;;3.63;;
28958;SDS011;16066;0.000;0.000;2023-04-12T13:34:31;5.80;;;4.03;;
28958;SDS011;16066;0.000;0.000;2023-04-12T13:36:57;3.80;;;3.17;;
28958;SDS011;16066;0.000;0.000;2023-04-12T13:39:23;10.20;;;3.47;;
28958;SDS011;16066;0.000;0.000;2023-04-12T13:41:49;6.23;;;3.70;;
28958;SDS011;16066;0.000;0.000;2023-04-12T13:44:15;6.30;;;3.33;;
28958;SDS011;16066;0.000;0.000;2023-04-12T13:46:41;14.63;;;3.40;;
28958;SDS011;16066;0.000;0.000;2023-04-12T13:49:06;7.40;;;4.10;;
28958;SDS011;16066;0.000;0.000;2023-04-12T13:51:32;8.17;;;3.83;;
28958;SDS011;16066;0.000;0.000;2023-04-12T13:53:57;5.33;;;3.67;;
28958;SDS011;16066;0.000;0.000;2023-04-12T13:56:23;5.97;;;3.40;;
28958;SDS011;16066;0.000;0.000;2023-04-12T13:58:49;7.87;;;3.73;;
28958;SDS011;16066;0.000;0.000;2023-04-12T14:01:14;7.30;;;3.80;;
28958;SDS011;16066;0.000;0.000;2023-04-12T14:03:40;6.07;;;3.70;;
28958;SDS011;16066;0.000;0.000;2023-04-12T14:06:05;6.33;;;3.80;;
28958;SDS011;16066;0.000;0.000;2023-04-12T14:08:31;7.43;;;3.27;;
28958;SDS011;16066;0.000;0.000;2023-04-12T14:10:57;3.87;;;3.10;;
28958;SDS011;16066;0.000;0.000;2023-04-12T14:13:23;4.43;;;3.00;;
28958;SDS011;16066;0.000;0.000;2023-04-12T14:15:50;8.80;;;3.53;;
28958;SDS011;16066;0.000;0.000;2023-04-12T14:18:16;4.90;;;3.00;;
28958;SDS011;16066;0.000;0.000;2023-04-12T14:20:42;6.47;;;3.47;;
28958;SDS011;16066;0.000;0.000;2023-04-12T14:23:13;4.60;;;2.90;;
28958;SDS011;16066;0.000;0.000;2023-04-12T14:25:39;5.60;;;3.10;;
28958;SDS011;16066;0.000;0.000;2023-04-12T14:28:05;5.23;;;2.67;;
28958;SDS011;16066;0.000;0.000;2023-04-12T14:30:31;4.40;;;2.87;;
28958;SDS011;16066;0.000;0.000;2023-04-12T14:32:56;7.07;;;3.00;;
28958;SDS011;16066;0.000;0.000;2023-04-12T14:35:22;14.53;;;3.10;;
28958;SDS011;16066;0.000;0.000;2023-04-12T14:37:47;5.20;;;3.20;;
28958;SDS011;16066;0.000;0.000;2023-04-12T14:40:13;5.80;;;3.17;;
28958;SDS011;16066;0.000;0.000;2023-04-12T14:42:39;4.43;;;3.00;;
28958;SDS011;16066;0.000;0.000;2023-04-12T14:45:05;4.20;;;3.23;;
28958;SDS011;16066;0.000;0.000;2023-04-12T14:47:32;6.77;;;3.63;;
28958;SDS011;16066;0.000;0.000;2023-04-12T14:49:58;4.50;;;2.70;;
28958;SDS011;16066;0.000;0.000;2023-04-12T14:52:23;4.43;;;2.73;;
28958;SDS011;16066;0.000;0.000;2023-04-12T14:54:50;4.90;;;3.27;;
28958;SDS011;16066;0.000;0.000;2023-04-12T14:57:15;4.33;;;2.57;;
28958;SDS011;16066;0.000;0.000;2023-04-12T14:59:41;3.60;;;2.43;;
28958;SDS011;16066;0.000;0.000;2023-04-12T15:02:07;4.37;;;2.80;;
28958;SDS011;16066;0.000;0.000;2023-04-12T15:04:32;5.40;;;3.00;;
28958;SDS011;16066;0.000;0.000;2023-04-12T15:06:58;4.10;;;2.90;;
28958;SDS011;16066;0.000;0.000;2023-04-12T15:09:24;5.30;;;3.10;;
28958;SDS011;16066;0.000;0.000;2023-04-12T15:11:50;10.03;;;3.00;;
28958;SDS011;16066;0.000;0.000;2023-04-12T15:14:18;5.33;;;2.67;;
28958;SDS011;16066;0.000;0.000;2023-04-12T15:16:44;4.63;;;2.80;;
28958;SDS011;16066;0.000;0.000;2023-04-12T15:19:11;8.50;;;3.27;;
28958;SDS011;16066;0.000;0.000;2023-04-12T15:21:37;4.77;;;2.83;;
28958;SDS011;16066;0.000;0.000;2023-04-12T15:24:02;5.10;;;3.03;;
28958;SDS011;16066;0.000;0.000;2023-04-12T15:26:28;8.20;;;3.53;;
28958;SDS011;16066;0.000;0.000;2023-04-12T15:28:54;6.07;;;3.37;;